sensor_id;sensor_type;location;lat;lon;timestamp;temperature;humidity
3051;DHT22;1535;51.098;6.414;2023-03-01T00:00:18;-1.00;99.90
3051;DHT22;1535;51.098;6.414;2023-03-01T00:02:45;-1.00;99.90
3051;DHT22;1535;51.098;6.414;2023-03-01T00:05:12;-1.00;99.90
3051;DHT22;1535;51.098;6.414;2023-03-01T00:07:39;-1.00;99.90
3051;DHT22;1535;51.098;6.414;2023-03-01T00:10:06;-1.00;99.90
3051;DHT22;1535;51.098;6.414;2023-03-01T00:12:34;-1.00;99.90
3051;DHT22;1535;51.098;6.414;2023-03-01T00:15:02;-1.00;99.90
3051;DHT22;1535;51.098;6.414;2023-03-01T00:17:30;-1.00;99.90
3051;DHT22;1535;51.098;6.414;2023-03-01T00:19:57;-1.00;99.90
3051;DHT22;1535;51.098;6.414;2023-03-01T00:22:24;-0.90;99.90
3051;DHT22;1535;51.098;6.414;2023-03-01T00:24:53;-0.90;99.90
3051;DHT22;1535;51.098;6.414;2023-03-01T00:27:20;-0.90;99.90
3051;DHT22;1535;51.098;6.414;2023-03-01T00:29:49;-0.90;99.90
3051;DHT22;1535;51.098;6.414;2023-03-01T00:32:15;-0.90;99.90
3051;DHT22;1535;51.098;6.414;2023-03-01T00:34:42;-0.90;99.90
3051;DHT22;1535;51.098;6.414;2023-03-01T00:37:20;-0.90;99.90
3051;DHT22;1535;51.098;6.414;2023-03-01T00:39:48;-0.90;99.90
3051;DHT22;1535;51.098;6.414;2023-03-01T00:42:15;-0.90;99.90
3051;DHT22;1535;51.098;6.414;2023-03-01T00:44:42;-1.00;99.90
3051;DHT22;1535;51.098;6.414;2023-03-01T00:47:10;-0.90;99.90
3051;DHT22;1535;51.098;6.414;2023-03-01T00:49:37;-0.90;99.90
3051;DHT22;1535;51.098;6.414;2023-03-01T00:52:04;-0.90;99.90
3051;DHT22;1535;51.098;6.414;2023-03-01T00:54:31;-0.80;99.90
3051;DHT22;1535;51.098;6.414;2023-03-01T00:56:59;-0.80;99.90
3051;DHT22;1535;51.098;6.414;2023-03-01T00:59:25;-0.80;99.90
3051;DHT22;1535;51.098;6.414;2023-03-01T01:01:52;-0.90;99.90
3051;DHT22;1535;51.098;6.414;2023-03-01T01:04:20;-1.00;99.90
3051;DHT22;1535;51.098;6.414;2023-03-01T01:06:48;-1.10;99.90
3051;DHT22;1535;51.098;6.414;2023-03-01T01:09:16;-1.10;99.90
3051;DHT22;1535;51.098;6.414;2023-03-01T01:11:44;-1.20;99.90
3051;DHT22;1535;51.098;6.414;2023-03-01T01:14:11;-1.10;99.90
3051;DHT22;1535;51.098;6.414;2023-03-01T01:16:38;-1.20;99.90
3051;DHT22;1535;51.098;6.414;2023-03-01T01:19:06;-1.30;99.90
3051;DHT22;1535;51.098;6.414;2023-03-01T01:21:34;-1.50;99.90
3051;DHT22;1535;51.098;6.414;2023-03-01T01:24:02;-1.60;99.90
3051;DHT22;1535;51.098;6.414;2023-03-01T01:26:31;-1.70;99.90
3051;DHT22;1535;51.098;6.414;2023-03-01T01:29:00;-1.90;99.90
3051;DHT22;1535;51.098;6.414;2023-03-01T01:31:28;-2.00;99.90
3051;DHT22;1535;51.098;6.414;2023-03-01T01:33:55;-2.00;99.90
3051;DHT22;1535;51.098;6.414;2023-03-01T01:36:23;-2.10;99.90
3051;DHT22;1535;51.098;6.414;2023-03-01T01:38:51;-2.10;99.90
3051;DHT22;1535;51.098;6.414;2023-03-01T01:41:19;-2.10;99.90
3051;DHT22;1535;51.098;6.414;2023-03-01T01:43:49;-2.10;99.90
3051;DHT22;1535;51.098;6.414;2023-03-01T01:46:23;-2.20;99.90
3051;DHT22;1535;51.098;6.414;2023-03-01T01:48:55;-2.20;99.90
3051;DHT22;1535;51.098;6.414;2023-03-01T01:51:27;-2.30;99.90
3051;DHT22;1535;51.098;6.414;2023-03-01T01:53:59;-2.20;99.90
3051;DHT22;1535;51.098;6.414;2023-03-01T01:56:27;-2.20;99.90
3051;DHT22;1535;51.098;6.414;2023-03-01T01:58:55;-2.10;99.90
3051;DHT22;1535;51.098;6.414;2023-03-01T02:01:23;-2.00;99.90
3051;DHT22;1535;51.098;6.414;2023-03-01T02:03:50;-2.00;99.90
3051;DHT22;1535;51.098;6.414;2023-03-01T02:06:20;-2.00;99.90
3051;DHT22;1535;51.098;6.414;2023-03-01T02:08:49;-2.00;99.90
3051;DHT22;1535;51.098;6.414;2023-03-01T02:11:20;-2.00;99.90
3051;DHT22;1535;51.098;6.414;2023-03-01T02:13:47;-2.00;99.90
3051;DHT22;1535;51.098;6.414;2023-03-01T02:16:15;-2.00;99.90
3051;DHT22;1535;51.098;6.414;2023-03-01T02:18:43;-2.10;99.90
3051;DHT22;1535;51.098;6.414;2023-03-01T02:21:22;-2.10;99.90
3051;DHT22;1535;51.098;6.414;2023-03-01T02:23:53;-2.00;99.90
3051;DHT22;1535;51.098;6.414;2023-03-01T02:26:27;-2.10;99.90
3051;DHT22;1535;51.098;6.414;2023-03-01T02:28:58;-2.30;99.90
3051;DHT22;1535;51.098;6.414;2023-03-01T02:31:25;-2.40;99.90
3051;DHT22;1535;51.098;6.414;2023-03-01T02:34:12;-2.50;99.90
3051;DHT22;1535;51.098;6.414;2023-03-01T02:36:42;-2.40;99.90
3051;DHT22;1535;51.098;6.414;2023-03-01T02:39:14;-2.40;99.90
3051;DHT22;1535;51.098;6.414;2023-03-01T02:41:45;-2.30;99.90
3051;DHT22;1535;51.098;6.414;2023-03-01T02:44:14;-2.50;99.90
3051;DHT22;1535;51.098;6.414;2023-03-01T02:46:46;-2.60;99.90
3051;DHT22;1535;51.098;6.414;2023-03-01T02:49:23;-2.70;99.90
3051;DHT22;1535;51.098;6.414;2023-03-01T02:52:17;-2.80;99.90
3051;DHT22;1535;51.098;6.414;2023-03-01T02:54:52;-2.80;99.90
3051;DHT22;1535;51.098;6.414;2023-03-01T02:57:19;-2.80;99.90
3051;DHT22;1535;51.098;6.414;2023-03-01T02:59:50;-2.80;99.90
3051;DHT22;1535;51.098;6.414;2023-03-01T03:02:20;-2.70;99.90
3051;DHT22;1535;51.098;6.414;2023-03-01T03:05:02;-2.60;99.90
3051;DHT22;1535;51.098;6.414;2023-03-01T03:07:31;-2.60;99.90
3051;DHT22;1535;51.098;6.414;2023-03-01T03:09:58;-2.60;99.90
3051;DHT22;1535;51.098;6.414;2023-03-01T03:12:25;-2.50;99.90
3051;DHT22;1535;51.098;6.414;2023-03-01T03:14:53;-2.50;99.90
3051;DHT22;1535;51.098;6.414;2023-03-01T03:17:20;-2.50;99.90
3051;DHT22;1535;51.098;6.414;2023-03-01T03:19:47;-2.50;99.90
3051;DHT22;1535;51.098;6.414;2023-03-01T03:22:14;-2.60;99.90
3051;DHT22;1535;51.098;6.414;2023-03-01T03:24:41;-2.60;99.90
3051;DHT22;1535;51.098;6.414;2023-03-01T03:27:08;-2.60;99.90
3051;DHT22;1535;51.098;6.414;2023-03-01T03:29:35;-2.60;99.90
3051;DHT22;1535;51.098;6.414;2023-03-01T03:32:03;-2.60;99.90
3051;DHT22;1535;51.098;6.414;2023-03-01T03:34:30;-2.70;99.90
3051;DHT22;1535;51.098;6.414;2023-03-01T03:36:57;-2.70;99.90
3051;DHT22;1535;51.098;6.414;2023-03-01T03:39:25;-2.70;99.90
3051;DHT22;1535;51.098;6.414;2023-03-01T03:41:52;-2.80;99.90
3051;DHT22;1535;51.098;6.414;2023-03-01T03:44:19;-2.90;99.90
3051;DHT22;1535;51.098;6.414;2023-03-01T03:46:46;-3.00;99.90
3051;DHT22;1535;51.098;6.414;2023-03-01T03:49:14;-3.00;99.90
3051;DHT22;1535;51.098;6.414;2023-03-01T03:51:41;-3.10;99.90
3051;DHT22;1535;51.098;6.414;2023-03-01T03:54:08;-3.10;99.90
3051;DHT22;1535;51.098;6.414;2023-03-01T03:56:36;-3.20;99.90
3051;DHT22;1535;51.098;6.414;2023-03-01T03:59:03;-3.20;99.90
3051;DHT22;1535;51.098;6.414;2023-03-01T04:01:31;-3.10;99.90
3051;DHT22;1535;51.098;6.414;2023-03-01T04:03:58;-3.00;99.90
3051;DHT22;1535;51.098;6.414;2023-03-01T04:06:31;-3.00;99.90
3051;DHT22;1535;51.098;6.414;2023-03-01T04:08:57;-3.10;99.90
3051;DHT22;1535;51.098;6.414;2023-03-01T04:11:26;-3.10;99.90
3051;DHT22;1535;51.098;6.414;2023-03-01T04:13:54;-3.10;99.90
3051;DHT22;1535;51.098;6.414;2023-03-01T04:16:21;-3.00;99.90
3051;DHT22;1535;51.098;6.414;2023-03-01T04:18:48;-3.10;99.90
3051;DHT22;1535;51.098;6.414;2023-03-01T04:21:15;-3.10;99.90
3051;DHT22;1535;51.098;6.414;2023-03-01T04:23:44;-3.20;99.90
3051;DHT22;1535;51.098;6.414;2023-03-01T04:26:11;-3.00;99.90
3051;DHT22;1535;51.098;6.414;2023-03-01T04:28:39;-3.00;99.90
3051;DHT22;1535;51.098;6.414;2023-03-01T04:31:09;-3.10;99.90
3051;DHT22;1535;51.098;6.414;2023-03-01T04:33:40;-3.20;99.90
3051;DHT22;1535;51.098;6.414;2023-03-01T04:38:35;-3.30;99.90
3051;DHT22;1535;51.098;6.414;2023-03-01T04:41:04;-3.30;99.90
3051;DHT22;1535;51.098;6.414;2023-03-01T04:43:32;-3.20;99.90
3051;DHT22;1535;51.098;6.414;2023-03-01T04:46:03;-3.10;99.90
3051;DHT22;1535;51.098;6.414;2023-03-01T04:48:32;-3.00;99.90
3051;DHT22;1535;51.098;6.414;2023-03-01T04:50:59;-3.00;99.90
3051;DHT22;1535;51.098;6.414;2023-03-01T04:53:27;-2.90;99.90
3051;DHT22;1535;51.098;6.414;2023-03-01T04:55:54;-3.00;99.90
3051;DHT22;1535;51.098;6.414;2023-03-01T04:58:23;-3.00;99.90
3051;DHT22;1535;51.098;6.414;2023-03-01T05:00:50;-2.90;99.90
3051;DHT22;1535;51.098;6.414;2023-03-01T05:03:18;-2.90;99.90
3051;DHT22;1535;51.098;6.414;2023-03-01T05:05:46;-3.00;99.90
3051;DHT22;1535;51.098;6.414;2023-03-01T05:08:14;-3.00;99.90
3051;DHT22;1535;51.098;6.414;2023-03-01T05:10:44;-2.90;99.90
3051;DHT22;1535;51.098;6.414;2023-03-01T05:13:13;-2.90;99.90
3051;DHT22;1535;51.098;6.414;2023-03-01T05:15:46;-2.90;99.90
3051;DHT22;1535;51.098;6.414;2023-03-01T05:18:14;-3.00;99.90
3051;DHT22;1535;51.098;6.414;2023-03-01T05:20:41;-3.00;99.90
3051;DHT22;1535;51.098;6.414;2023-03-01T05:23:07;-3.00;99.90
3051;DHT22;1535;51.098;6.414;2023-03-01T05:25:35;-3.00;99.90
3051;DHT22;1535;51.098;6.414;2023-03-01T05:28:06;-2.90;99.90
3051;DHT22;1535;51.098;6.414;2023-03-01T05:30:33;-2.90;99.90
3051;DHT22;1535;51.098;6.414;2023-03-01T05:33:02;-2.90;99.90
3051;DHT22;1535;51.098;6.414;2023-03-01T05:35:29;-2.90;99.90
3051;DHT22;1535;51.098;6.414;2023-03-01T05:37:58;-2.90;99.90
3051;DHT22;1535;51.098;6.414;2023-03-01T05:40:26;-2.80;99.90
3051;DHT22;1535;51.098;6.414;2023-03-01T05:42:54;-2.90;99.90
3051;DHT22;1535;51.098;6.414;2023-03-01T05:45:22;-2.90;99.90
3051;DHT22;1535;51.098;6.414;2023-03-01T05:47:50;-2.90;99.90
3051;DHT22;1535;51.098;6.414;2023-03-01T05:50:21;-2.90;99.90
3051;DHT22;1535;51.098;6.414;2023-03-01T05:52:49;-2.90;99.90
3051;DHT22;1535;51.098;6.414;2023-03-01T05:55:17;-2.90;99.90
3051;DHT22;1535;51.098;6.414;2023-03-01T05:57:45;-2.90;99.90
3051;DHT22;1535;51.098;6.414;2023-03-01T06:00:14;-2.90;99.90
3051;DHT22;1535;51.098;6.414;2023-03-01T06:02:41;-3.00;99.90
3051;DHT22;1535;51.098;6.414;2023-03-01T06:05:09;-3.00;99.90
3051;DHT22;1535;51.098;6.414;2023-03-01T06:07:38;-3.00;99.90
3051;DHT22;1535;51.098;6.414;2023-03-01T06:10:06;-3.10;99.90
3051;DHT22;1535;51.098;6.414;2023-03-01T06:12:34;-3.10;99.90
3051;DHT22;1535;51.098;6.414;2023-03-01T06:15:02;-3.20;99.90
3051;DHT22;1535;51.098;6.414;2023-03-01T06:17:31;-3.20;99.90
3051;DHT22;1535;51.098;6.414;2023-03-01T06:19:57;-3.20;99.90
3051;DHT22;1535;51.098;6.414;2023-03-01T06:22:24;-3.10;99.90
3051;DHT22;1535;51.098;6.414;2023-03-01T06:24:52;-3.10;99.90
3051;DHT22;1535;51.098;6.414;2023-03-01T06:27:19;-3.20;99.90
3051;DHT22;1535;51.098;6.414;2023-03-01T06:29:46;-3.20;99.90
3051;DHT22;1535;51.098;6.414;2023-03-01T06:32:14;-3.20;99.90
3051;DHT22;1535;51.098;6.414;2023-03-01T06:34:41;-3.20;99.90
3051;DHT22;1535;51.098;6.414;2023-03-01T06:37:07;-3.10;99.90
3051;DHT22;1535;51.098;6.414;2023-03-01T06:39:35;-3.10;99.90
3051;DHT22;1535;51.098;6.414;2023-03-01T06:42:03;-3.10;99.90
3051;DHT22;1535;51.098;6.414;2023-03-01T06:44:30;-3.20;99.90
3051;DHT22;1535;51.098;6.414;2023-03-01T06:46:57;-3.10;99.90
3051;DHT22;1535;51.098;6.414;2023-03-01T06:49:24;-3.00;99.90
3051;DHT22;1535;51.098;6.414;2023-03-01T06:51:51;-3.00;99.90
3051;DHT22;1535;51.098;6.414;2023-03-01T06:54:19;-2.90;99.90
3051;DHT22;1535;51.098;6.414;2023-03-01T06:56:48;-3.00;99.90
3051;DHT22;1535;51.098;6.414;2023-03-01T06:59:18;-3.00;99.90
3051;DHT22;1535;51.098;6.414;2023-03-01T07:01:45;-3.00;99.90
3051;DHT22;1535;51.098;6.414;2023-03-01T07:04:13;-3.00;99.90
3051;DHT22;1535;51.098;6.414;2023-03-01T07:06:40;-2.90;99.90
3051;DHT22;1535;51.098;6.414;2023-03-01T07:09:08;-2.90;99.90
3051;DHT22;1535;51.098;6.414;2023-03-01T07:11:35;-2.90;99.90
3051;DHT22;1535;51.098;6.414;2023-03-01T07:14:02;-2.80;99.90
3051;DHT22;1535;51.098;6.414;2023-03-01T07:16:30;-2.80;99.90
3051;DHT22;1535;51.098;6.414;2023-03-01T07:18:57;-2.70;99.90
3051;DHT22;1535;51.098;6.414;2023-03-01T07:21:24;-2.60;99.90
3051;DHT22;1535;51.098;6.414;2023-03-01T07:23:51;-2.60;99.90
3051;DHT22;1535;51.098;6.414;2023-03-01T07:26:18;-2.50;99.90
3051;DHT22;1535;51.098;6.414;2023-03-01T07:28:45;-2.40;99.90
3051;DHT22;1535;51.098;6.414;2023-03-01T07:31:12;-2.40;99.90
3051;DHT22;1535;51.098;6.414;2023-03-01T07:33:41;-2.30;99.90
3051;DHT22;1535;51.098;6.414;2023-03-01T07:36:09;-2.20;99.90
3051;DHT22;1535;51.098;6.414;2023-03-01T07:38:36;-2.10;99.90
3051;DHT22;1535;51.098;6.414;2023-03-01T07:41:03;-2.00;99.90
3051;DHT22;1535;51.098;6.414;2023-03-01T07:43:31;-1.90;99.90
3051;DHT22;1535;51.098;6.414;2023-03-01T07:45:58;-1.90;99.90
3051;DHT22;1535;51.098;6.414;2023-03-01T07:48:27;-1.90;99.90
3051;DHT22;1535;51.098;6.414;2023-03-01T07:50:57;-1.80;99.90
3051;DHT22;1535;51.098;6.414;2023-03-01T07:53:25;-1.80;99.90
3051;DHT22;1535;51.098;6.414;2023-03-01T07:56:01;-1.70;99.90
3051;DHT22;1535;51.098;6.414;2023-03-01T07:58:28;-1.60;99.90
3051;DHT22;1535;51.098;6.414;2023-03-01T08:00:55;-1.60;99.90
3051;DHT22;1535;51.098;6.414;2023-03-01T08:03:23;-1.60;99.90
3051;DHT22;1535;51.098;6.414;2023-03-01T08:05:50;-1.40;99.90
3051;DHT22;1535;51.098;6.414;2023-03-01T08:08:19;-1.30;99.90
3051;DHT22;1535;51.098;6.414;2023-03-01T08:10:46;-1.20;99.90
3051;DHT22;1535;51.098;6.414;2023-03-01T08:13:13;-1.20;99.90
3051;DHT22;1535;51.098;6.414;2023-03-01T08:15:40;-1.10;99.90
3051;DHT22;1535;51.098;6.414;2023-03-01T08:18:06;-0.90;99.90
3051;DHT22;1535;51.098;6.414;2023-03-01T08:20:33;-0.90;99.90
3051;DHT22;1535;51.098;6.414;2023-03-01T08:23:00;-0.80;99.90
3051;DHT22;1535;51.098;6.414;2023-03-01T08:25:28;-0.80;99.90
3051;DHT22;1535;51.098;6.414;2023-03-01T08:27:56;-0.60;99.90
3051;DHT22;1535;51.098;6.414;2023-03-01T08:30:22;-0.50;99.90
3051;DHT22;1535;51.098;6.414;2023-03-01T08:32:50;-0.40;99.90
3051;DHT22;1535;51.098;6.414;2023-03-01T08:35:18;-0.30;99.90
3051;DHT22;1535;51.098;6.414;2023-03-01T08:37:46;-0.20;99.90
3051;DHT22;1535;51.098;6.414;2023-03-01T08:40:13;-0.20;99.90
3051;DHT22;1535;51.098;6.414;2023-03-01T08:42:42;-0.10;99.90
3051;DHT22;1535;51.098;6.414;2023-03-01T08:45:10;0.00;99.90
3051;DHT22;1535;51.098;6.414;2023-03-01T08:47:38;0.20;99.90
3051;DHT22;1535;51.098;6.414;2023-03-01T08:50:07;0.20;99.90
3051;DHT22;1535;51.098;6.414;2023-03-01T08:52:34;0.30;99.90
3051;DHT22;1535;51.098;6.414;2023-03-01T08:55:01;0.40;99.90
3051;DHT22;1535;51.098;6.414;2023-03-01T08:57:28;0.50;99.90
3051;DHT22;1535;51.098;6.414;2023-03-01T08:59:56;0.70;99.90
3051;DHT22;1535;51.098;6.414;2023-03-01T09:02:23;0.80;99.90
3051;DHT22;1535;51.098;6.414;2023-03-01T09:04:50;0.80;99.90
3051;DHT22;1535;51.098;6.414;2023-03-01T09:07:16;1.00;99.90
3051;DHT22;1535;51.098;6.414;2023-03-01T09:09:43;1.00;99.90
3051;DHT22;1535;51.098;6.414;2023-03-01T09:12:10;1.10;99.90
3051;DHT22;1535;51.098;6.414;2023-03-01T09:14:37;1.10;99.90
3051;DHT22;1535;51.098;6.414;2023-03-01T09:17:07;1.30;99.90
3051;DHT22;1535;51.098;6.414;2023-03-01T09:19:33;1.40;99.90
3051;DHT22;1535;51.098;6.414;2023-03-01T09:22:03;1.50;99.90
3051;DHT22;1535;51.098;6.414;2023-03-01T09:24:30;1.60;99.90
3051;DHT22;1535;51.098;6.414;2023-03-01T09:26:58;1.70;99.90
3051;DHT22;1535;51.098;6.414;2023-03-01T09:29:25;1.80;99.90
3051;DHT22;1535;51.098;6.414;2023-03-01T09:31:52;1.80;99.90
3051;DHT22;1535;51.098;6.414;2023-03-01T09:34:22;1.90;99.90
3051;DHT22;1535;51.098;6.414;2023-03-01T09:36:50;2.00;99.90
3051;DHT22;1535;51.098;6.414;2023-03-01T09:39:17;2.00;99.90
3051;DHT22;1535;51.098;6.414;2023-03-01T09:41:47;2.20;99.90
3051;DHT22;1535;51.098;6.414;2023-03-01T09:44:29;2.40;99.90
3051;DHT22;1535;51.098;6.414;2023-03-01T09:46:58;2.50;99.90
3051;DHT22;1535;51.098;6.414;2023-03-01T09:49:28;2.50;99.90
3051;DHT22;1535;51.098;6.414;2023-03-01T09:51:58;2.60;99.90
3051;DHT22;1535;51.098;6.414;2023-03-01T09:54:26;2.70;99.90
3051;DHT22;1535;51.098;6.414;2023-03-01T09:57:09;2.70;99.90
3051;DHT22;1535;51.098;6.414;2023-03-01T09:59:52;2.80;99.90
3051;DHT22;1535;51.098;6.414;2023-03-01T10:02:27;2.90;99.90
3051;DHT22;1535;51.098;6.414;2023-03-01T10:05:05;3.00;99.90
3051;DHT22;1535;51.098;6.414;2023-03-01T10:07:43;3.10;99.90
3051;DHT22;1535;51.098;6.414;2023-03-01T10:10:24;3.40;99.90
3051;DHT22;1535;51.098;6.414;2023-03-01T10:12:53;3.60;99.90
3051;DHT22;1535;51.098;6.414;2023-03-01T10:15:25;3.50;99.90
3051;DHT22;1535;51.098;6.414;2023-03-01T10:17:56;3.80;99.90
3051;DHT22;1535;51.098;6.414;2023-03-01T10:20:29;4.20;99.90
3051;DHT22;1535;51.098;6.414;2023-03-01T10:23:00;4.50;99.90
3051;DHT22;1535;51.098;6.414;2023-03-01T10:25:41;4.90;99.90
3051;DHT22;1535;51.098;6.414;2023-03-01T10:28:16;5.60;99.90
3051;DHT22;1535;51.098;6.414;2023-03-01T10:30:43;5.30;99.90
3051;DHT22;1535;51.098;6.414;2023-03-01T10:33:17;5.70;99.90
3051;DHT22;1535;51.098;6.414;2023-03-01T10:35:45;6.20;99.90
3051;DHT22;1535;51.098;6.414;2023-03-01T10:38:13;6.70;99.90
3051;DHT22;1535;51.098;6.414;2023-03-01T10:40:51;6.70;99.90
3051;DHT22;1535;51.098;6.414;2023-03-01T10:43:19;7.10;99.90
3051;DHT22;1535;51.098;6.414;2023-03-01T10:45:47;7.40;99.90
3051;DHT22;1535;51.098;6.414;2023-03-01T10:48:15;8.00;99.90
3051;DHT22;1535;51.098;6.414;2023-03-01T10:50:45;8.50;99.00
3051;DHT22;1535;51.098;6.414;2023-03-01T10:53:31;8.10;96.40
3051;DHT22;1535;51.098;6.414;2023-03-01T10:56:04;8.70;97.20
3051;DHT22;1535;51.098;6.414;2023-03-01T10:58:32;8.80;94.50
3051;DHT22;1535;51.098;6.414;2023-03-01T11:01:01;9.30;91.90
3051;DHT22;1535;51.098;6.414;2023-03-01T11:03:29;9.90;90.60
3051;DHT22;1535;51.098;6.414;2023-03-01T11:06:05;9.30;86.50
3051;DHT22;1535;51.098;6.414;2023-03-01T11:08:38;9.30;88.90
3051;DHT22;1535;51.098;6.414;2023-03-01T11:11:23;9.10;90.00
3051;DHT22;1535;51.098;6.414;2023-03-01T11:13:55;9.70;89.10
3051;DHT22;1535;51.098;6.414;2023-03-01T11:16:28;10.00;86.90
3051;DHT22;1535;51.098;6.414;2023-03-01T11:18:57;9.60;88.00
3051;DHT22;1535;51.098;6.414;2023-03-01T11:21:27;9.90;86.70
3051;DHT22;1535;51.098;6.414;2023-03-01T11:23:56;9.70;80.70
3051;DHT22;1535;51.098;6.414;2023-03-01T11:26:24;10.20;80.40
3051;DHT22;1535;51.098;6.414;2023-03-01T11:28:56;10.10;77.90
3051;DHT22;1535;51.098;6.414;2023-03-01T11:31:24;10.10;75.60
3051;DHT22;1535;51.098;6.414;2023-03-01T11:33:55;10.30;77.00
3051;DHT22;1535;51.098;6.414;2023-03-01T11:36:31;11.10;76.70
3051;DHT22;1535;51.098;6.414;2023-03-01T11:39:03;11.20;72.30
3051;DHT22;1535;51.098;6.414;2023-03-01T11:41:34;10.80;71.70
3051;DHT22;1535;51.098;6.414;2023-03-01T11:44:05;10.70;68.80
3051;DHT22;1535;51.098;6.414;2023-03-01T11:46:58;10.30;68.50
3051;DHT22;1535;51.098;6.414;2023-03-01T11:52:37;10.10;65.30
3051;DHT22;1535;51.098;6.414;2023-03-01T11:55:20;10.40;68.90
3051;DHT22;1535;51.098;6.414;2023-03-01T11:58:11;10.50;66.80
3051;DHT22;1535;51.098;6.414;2023-03-01T12:00:56;9.90;66.80
3051;DHT22;1535;51.098;6.414;2023-03-01T12:03:30;10.50;64.60
3051;DHT22;1535;51.098;6.414;2023-03-01T12:09:17;11.70;64.40
3051;DHT22;1535;51.098;6.414;2023-03-01T12:12:00;12.00;63.90
3051;DHT22;1535;51.098;6.414;2023-03-01T12:14:41;11.60;60.20
3051;DHT22;1535;51.098;6.414;2023-03-01T12:17:29;12.00;59.90
3051;DHT22;1535;51.098;6.414;2023-03-01T12:22:59;11.30;58.80
3051;DHT22;1535;51.098;6.414;2023-03-01T12:25:34;11.40;58.70
3051;DHT22;1535;51.098;6.414;2023-03-01T12:28:30;11.90;58.50
3051;DHT22;1535;51.098;6.414;2023-03-01T12:31:23;11.60;58.20
3051;DHT22;1535;51.098;6.414;2023-03-01T12:34:01;11.40;58.50
3051;DHT22;1535;51.098;6.414;2023-03-01T12:39:33;12.00;57.50
3051;DHT22;1535;51.098;6.414;2023-03-01T12:42:12;11.10;57.40
3051;DHT22;1535;51.098;6.414;2023-03-01T12:44:53;11.80;59.30
3051;DHT22;1535;51.098;6.414;2023-03-01T12:47:52;11.80;56.30
3051;DHT22;1535;51.098;6.414;2023-03-01T12:50:26;12.40;55.10
3051;DHT22;1535;51.098;6.414;2023-03-01T12:52:56;11.90;57.10
3051;DHT22;1535;51.098;6.414;2023-03-01T12:55:28;11.90;58.00
3051;DHT22;1535;51.098;6.414;2023-03-01T12:58:04;11.80;56.10
3051;DHT22;1535;51.098;6.414;2023-03-01T13:00:37;11.80;55.60
3051;DHT22;1535;51.098;6.414;2023-03-01T13:03:20;11.80;55.00
3051;DHT22;1535;51.098;6.414;2023-03-01T13:06:00;11.90;55.70
3051;DHT22;1535;51.098;6.414;2023-03-01T13:08:32;11.60;57.20
3051;DHT22;1535;51.098;6.414;2023-03-01T13:11:03;11.60;57.20
3051;DHT22;1535;51.098;6.414;2023-03-01T13:13:31;11.80;55.80
3051;DHT22;1535;51.098;6.414;2023-03-01T13:16:22;11.90;56.70
3051;DHT22;1535;51.098;6.414;2023-03-01T13:19:12;12.00;56.30
3051;DHT22;1535;51.098;6.414;2023-03-01T13:21:40;12.10;54.50
3051;DHT22;1535;51.098;6.414;2023-03-01T13:24:23;12.20;55.40
3051;DHT22;1535;51.098;6.414;2023-03-01T13:27:11;12.80;54.80
3051;DHT22;1535;51.098;6.414;2023-03-01T13:29:50;12.50;55.20
3051;DHT22;1535;51.098;6.414;2023-03-01T13:32:23;12.70;56.00
3051;DHT22;1535;51.098;6.414;2023-03-01T13:34:52;12.10;54.20
3051;DHT22;1535;51.098;6.414;2023-03-01T13:37:21;12.20;53.90
3051;DHT22;1535;51.098;6.414;2023-03-01T13:39:48;12.30;53.30
3051;DHT22;1535;51.098;6.414;2023-03-01T13:42:35;12.10;53.90
3051;DHT22;1535;51.098;6.414;2023-03-01T13:47:52;11.50;51.50
3051;DHT22;1535;51.098;6.414;2023-03-01T13:50:23;11.30;50.70
3051;DHT22;1535;51.098;6.414;2023-03-01T13:52:53;11.50;51.30
3051;DHT22;1535;51.098;6.414;2023-03-01T13:55:26;11.40;52.60
3051;DHT22;1535;51.098;6.414;2023-03-01T13:57:55;11.40;53.70
3051;DHT22;1535;51.098;6.414;2023-03-01T14:00:34;11.60;53.50
3051;DHT22;1535;51.098;6.414;2023-03-01T14:03:08;11.40;53.10
3051;DHT22;1535;51.098;6.414;2023-03-01T14:05:36;11.80;52.00
3051;DHT22;1535;51.098;6.414;2023-03-01T14:08:03;11.60;51.40
3051;DHT22;1535;51.098;6.414;2023-03-01T14:10:37;11.30;52.60
3051;DHT22;1535;51.098;6.414;2023-03-01T14:13:18;11.30;53.50
3051;DHT22;1535;51.098;6.414;2023-03-01T14:15:56;11.40;53.80
3051;DHT22;1535;51.098;6.414;2023-03-01T14:18:29;11.40;53.60
3051;DHT22;1535;51.098;6.414;2023-03-01T14:20:59;11.50;54.30
3051;DHT22;1535;51.098;6.414;2023-03-01T14:23:27;11.30;54.10
3051;DHT22;1535;51.098;6.414;2023-03-01T14:25:57;11.40;52.50
3051;DHT22;1535;51.098;6.414;2023-03-01T14:28:25;11.40;52.00
3051;DHT22;1535;51.098;6.414;2023-03-01T14:30:55;11.50;53.40
3051;DHT22;1535;51.098;6.414;2023-03-01T14:33:25;11.50;53.30
3051;DHT22;1535;51.098;6.414;2023-03-01T14:35:55;11.30;53.40
3051;DHT22;1535;51.098;6.414;2023-03-01T14:38:22;11.00;53.40
3051;DHT22;1535;51.098;6.414;2023-03-01T14:40:52;11.10;53.50
3051;DHT22;1535;51.098;6.414;2023-03-01T14:43:24;10.90;53.10
3051;DHT22;1535;51.098;6.414;2023-03-01T14:45:51;11.50;52.30
3051;DHT22;1535;51.098;6.414;2023-03-01T14:48:20;11.20;53.20
3051;DHT22;1535;51.098;6.414;2023-03-01T14:50:48;11.50;52.40
3051;DHT22;1535;51.098;6.414;2023-03-01T14:53:18;11.10;52.30
3051;DHT22;1535;51.098;6.414;2023-03-01T14:55:47;11.10;53.10
3051;DHT22;1535;51.098;6.414;2023-03-01T14:58:18;11.50;52.80
3051;DHT22;1535;51.098;6.414;2023-03-01T15:00:49;11.70;51.80
3051;DHT22;1535;51.098;6.414;2023-03-01T15:03:23;11.20;51.70
3051;DHT22;1535;51.098;6.414;2023-03-01T15:05:51;11.20;52.50
3051;DHT22;1535;51.098;6.414;2023-03-01T15:08:21;11.50;53.90
3051;DHT22;1535;51.098;6.414;2023-03-01T15:10:57;12.00;53.20
3051;DHT22;1535;51.098;6.414;2023-03-01T15:13:28;12.00;53.60
3051;DHT22;1535;51.098;6.414;2023-03-01T15:16:06;11.80;53.30
3051;DHT22;1535;51.098;6.414;2023-03-01T15:18:36;11.40;52.90
3051;DHT22;1535;51.098;6.414;2023-03-01T15:21:09;11.50;54.00
3051;DHT22;1535;51.098;6.414;2023-03-01T15:23:37;11.40;54.00
3051;DHT22;1535;51.098;6.414;2023-03-01T15:26:06;11.20;54.00
3051;DHT22;1535;51.098;6.414;2023-03-01T15:28:34;11.00;53.60
3051;DHT22;1535;51.098;6.414;2023-03-01T15:31:11;11.20;53.60
3051;DHT22;1535;51.098;6.414;2023-03-01T15:33:41;11.50;52.90
3051;DHT22;1535;51.098;6.414;2023-03-01T15:36:36;11.20;53.80
3051;DHT22;1535;51.098;6.414;2023-03-01T15:39:04;10.90;54.70
3051;DHT22;1535;51.098;6.414;2023-03-01T15:41:36;10.90;55.10
3051;DHT22;1535;51.098;6.414;2023-03-01T15:44:15;10.90;55.30
3051;DHT22;1535;51.098;6.414;2023-03-01T15:46:46;11.10;55.10
3051;DHT22;1535;51.098;6.414;2023-03-01T15:49:26;11.00;54.80
3051;DHT22;1535;51.098;6.414;2023-03-01T15:51:54;11.30;55.70
3051;DHT22;1535;51.098;6.414;2023-03-01T15:54:23;11.10;54.90
3051;DHT22;1535;51.098;6.414;2023-03-01T15:56:50;10.70;55.50
3051;DHT22;1535;51.098;6.414;2023-03-01T15:59:17;10.50;54.90
3051;DHT22;1535;51.098;6.414;2023-03-01T16:01:45;10.40;56.10
3051;DHT22;1535;51.098;6.414;2023-03-01T16:04:15;10.70;56.30
3051;DHT22;1535;51.098;6.414;2023-03-01T16:06:47;10.80;56.50
3051;DHT22;1535;51.098;6.414;2023-03-01T16:09:20;11.00;56.90
3051;DHT22;1535;51.098;6.414;2023-03-01T16:11:47;10.70;56.60
3051;DHT22;1535;51.098;6.414;2023-03-01T16:14:14;10.80;57.20
3051;DHT22;1535;51.098;6.414;2023-03-01T16:16:41;10.90;55.80
3051;DHT22;1535;51.098;6.414;2023-03-01T16:19:08;10.90;56.80
3051;DHT22;1535;51.098;6.414;2023-03-01T16:21:35;10.90;56.30
3051;DHT22;1535;51.098;6.414;2023-03-01T16:24:04;10.60;54.70
3051;DHT22;1535;51.098;6.414;2023-03-01T16:26:31;10.50;55.40
3051;DHT22;1535;51.098;6.414;2023-03-01T16:28:58;10.10;55.40
3051;DHT22;1535;51.098;6.414;2023-03-01T16:31:25;9.80;56.80
3051;DHT22;1535;51.098;6.414;2023-03-01T16:33:54;9.70;56.70
3051;DHT22;1535;51.098;6.414;2023-03-01T16:36:23;9.60;56.90
3051;DHT22;1535;51.098;6.414;2023-03-01T16:38:50;9.60;57.30
3051;DHT22;1535;51.098;6.414;2023-03-01T16:41:22;9.50;57.10